Valdese, NC

11:05 AM EST on December 22, 2014 (GMT -0500)
BurkeWeather.com | Change Station
CLOSE
Current Station
Personal Weather Station
Location: Valdese, NC
Elevation: 1193 ft
Nearby Weather Stations

Elev 1193 ft 35.73 °N, 81.59 °W | Updated 24 seconds ago

Fog
Fog
39.7 °F
Feels Like 40 °F
N
0.0
Wind Variable Wind from NE
Gusts 0.0 mph

Today
High -- | Low -- °F
--% Chance of Precip.
Yesterday
High -- | Low -- °F
Precip. -- in
7:32 AM 5:17 PM
New Moon, 0% visible
Pressure 30.19 in
Visibility 1.5 miles
Clouds Overcast 500 ft
Windchill 40 °F
Dew Point 35 °F
Humidity 84%
Rainfall 0.04 in
Snow Depth Not available.
UV 1 out of 12
Pollen .30 out of 12
Air Quality Not available.
Flu Activity Not available.
METAR KMRN 221555Z AUTO 02004KT 1 1/2SM BR OVC005 04/04 A3019 RMK AO2 T00380035

More Conditions Fewer Conditions

Pressure 30.19 in
Visibility 1.5 miles
Clouds Overcast 500 ft
Windchill 40 °F
Dew Point 35 °F
Humidity 84%
Rainfall 0.04 in
Snow Depth Not available.
UV 1 out of 12
Pollen .30 out of 12
Air Quality Not available.
Flu Activity Not available.
METAR KMRN 221555Z AUTO 02004KT 1 1/2SM BR OVC005 04/04 A3019 RMK AO2 T00380035

More Conditions Fewer Conditions

10-Day Weather Forecast

Almanac

Astronomy

Dec. 22, 2014 Rise Set
Actual Time
Civil Twilight
Nautical Twilight
Astronomical Twilight
Moon
Length of Visible Light
Length of Day
Tomorrow will be .
, % of the Moon is Illuminated

Today's Extremes

State Highs State Lows

Community

WunderPhotos

Upload Photos

1,779,630 photos uploaded!

WunderBlogs® & News

Nearby

Air Quality

  Air Quality AQ Index Pollutant
Not available.

Snow Depth

Station Depth Elevation

Earthquake Activity

City Distance Mag. Time & Date
Minimum magnitude displayed is 2.5.

Coastal Water Temperatures

Place Temperature

Nearby Weather Stations